createdAt,value
2023-03-21T00:02:21.215Z,2.95
2023-03-21T00:04:53.743Z,3.25
2023-03-21T00:07:25.456Z,3.40
2023-03-21T00:10:08.670Z,3.00
2023-03-21T00:12:50.550Z,2.60
2023-03-21T00:15:24.913Z,2.67
2023-03-21T00:18:03.631Z,3.00
2023-03-21T00:20:34.459Z,3.50
2023-03-21T00:23:04.752Z,2.72
2023-03-21T00:25:35.626Z,3.28
2023-03-21T00:28:09.067Z,3.80
2023-03-21T00:30:39.379Z,3.30
2023-03-21T00:33:21.986Z,3.50
2023-03-21T00:36:02.615Z,3.38
2023-03-21T00:38:37.998Z,3.13
2023-03-21T00:41:23.221Z,3.10
2023-03-21T00:44:04.749Z,3.50
2023-03-21T00:46:45.228Z,2.85
2023-03-21T00:49:17.466Z,2.88
2023-03-21T00:51:51.919Z,3.15
2023-03-21T00:54:22.518Z,3.17
2023-03-21T00:56:52.888Z,2.97
2023-03-21T00:59:25.764Z,2.47
2023-03-21T01:01:56.889Z,2.80
2023-03-21T01:04:27.283Z,2.95
2023-03-21T01:06:58.174Z,2.65
2023-03-21T01:09:28.595Z,3.15
2023-03-21T01:11:58.919Z,3.35
2023-03-21T01:14:32.530Z,2.88
2023-03-21T01:17:02.891Z,3.67
2023-03-21T01:19:50.327Z,4.03
2023-03-21T01:22:21.764Z,3.65
2023-03-21T01:24:58.554Z,4.22
2023-03-21T01:27:33.676Z,3.92
2023-03-21T01:30:17.388Z,4.00
2023-03-21T01:32:50.208Z,4.05
2023-03-21T01:35:20.795Z,2.88
2023-03-21T01:37:51.778Z,2.35
2023-03-21T01:40:25.038Z,2.70
2023-03-21T01:43:01.566Z,2.20
2023-03-21T01:46:01.829Z,1.83
2023-03-21T01:48:57.275Z,1.73
2023-03-21T01:51:30.255Z,1.73
2023-03-21T01:54:02.126Z,2.00
2023-03-21T01:56:37.919Z,2.65
2023-03-21T01:59:23.026Z,1.92
2023-03-21T02:02:18.062Z,2.22
2023-03-21T02:05:05.645Z,2.03
2023-03-21T02:07:41.955Z,1.90
2023-03-21T02:10:15.349Z,1.85
2023-03-21T02:12:50.250Z,2.30
2023-03-21T02:15:20.817Z,4.35
2023-03-21T02:18:13.237Z,2.70
2023-03-21T02:21:35.005Z,3.00
2023-03-21T02:24:46.250Z,2.90
2023-03-21T02:27:22.038Z,2.85
2023-03-21T02:30:30.435Z,3.10
2023-03-21T02:33:27.932Z,2.40
2023-03-21T02:36:19.999Z,2.85
2023-03-21T02:38:59.005Z,2.40
2023-03-21T02:41:40.445Z,2.15
2023-03-21T02:44:22.297Z,2.35
2023-03-21T02:47:05.510Z,2.25
2023-03-21T02:49:45.443Z,2.10
2023-03-21T02:52:37.472Z,1.65
2023-03-21T02:55:19.055Z,1.80
2023-03-21T02:57:59.251Z,1.75
2023-03-21T03:00:36.247Z,1.75
2023-03-21T03:03:12.711Z,1.85
2023-03-21T03:05:53.502Z,1.50
2023-03-21T03:08:45.193Z,1.75
2023-03-21T03:11:32.006Z,1.83
2023-03-21T03:14:56.460Z,2.03
2023-03-21T03:17:27.947Z,1.40
2023-03-21T03:20:17.018Z,1.45
2023-03-21T03:22:59.173Z,1.70
2023-03-21T03:25:42.605Z,1.70
2023-03-21T03:28:24.828Z,1.70
2023-03-21T03:31:08.595Z,1.67
2023-03-21T03:33:55.740Z,1.70
2023-03-21T03:36:34.489Z,1.48
2023-03-21T03:39:19.019Z,2.40
2023-03-21T03:42:12.449Z,1.98
2023-03-21T03:44:55.986Z,1.73
2023-03-21T03:47:37.826Z,1.65
2023-03-21T03:50:18.436Z,1.80
2023-03-21T03:52:57.216Z,1.70
2023-03-21T03:55:34.784Z,1.88
2023-03-21T03:58:23.829Z,1.73
2023-03-21T04:00:59.343Z,2.00
2023-03-21T04:03:39.280Z,1.73
2023-03-21T04:06:16.646Z,1.67
2023-03-21T04:08:47.440Z,2.05
2023-03-21T04:11:18.585Z,1.77
2023-03-21T04:13:53.673Z,1.70
2023-03-21T04:16:33.395Z,2.70
2023-03-21T04:19:05.504Z,1.70
2023-03-21T04:21:35.826Z,1.90
2023-03-21T04:24:07.570Z,1.85
2023-03-21T04:26:38.315Z,2.22
2023-03-21T04:29:29.933Z,1.73
2023-03-21T04:32:06.371Z,1.77
2023-03-21T04:34:40.436Z,2.20
2023-03-21T04:37:12.208Z,2.13
2023-03-21T04:39:46.464Z,1.77
2023-03-21T04:42:18.612Z,1.98
2023-03-21T04:44:49.254Z,2.20
2023-03-21T04:47:23.131Z,1.92
2023-03-21T04:49:54.064Z,2.42
2023-03-21T04:52:25.423Z,1.70
2023-03-21T04:54:56.288Z,2.30
2023-03-21T04:57:27.188Z,2.20
2023-03-21T04:59:57.534Z,2.10
2023-03-21T05:02:30.394Z,2.13
2023-03-21T05:05:00.608Z,2.58
2023-03-21T05:07:32.811Z,2.58
2023-03-21T05:10:03.345Z,2.75
2023-03-21T05:12:34.177Z,2.42
2023-03-21T05:15:04.593Z,2.45
2023-03-21T05:17:37.467Z,2.20
2023-03-21T05:20:09.822Z,2.40
2023-03-21T05:22:41.464Z,3.05
2023-03-21T05:25:18.551Z,3.10
2023-03-21T05:28:04.532Z,3.30
2023-03-21T05:30:36.627Z,3.00
2023-03-21T05:33:10.585Z,2.97
2023-03-21T05:35:41.345Z,3.10
2023-03-21T05:38:14.141Z,3.72
2023-03-21T05:40:57.504Z,3.35
2023-03-21T05:43:28.403Z,3.17
2023-03-21T05:45:59.224Z,3.17
2023-03-21T05:48:35.726Z,3.88
2023-03-21T05:51:20.414Z,3.55
2023-03-21T05:53:52.009Z,3.53
2023-03-21T05:56:22.810Z,3.40
2023-03-21T05:59:00.473Z,3.72
2023-03-21T06:01:31.764Z,3.78
2023-03-21T06:04:14.161Z,3.53
2023-03-21T06:06:44.556Z,4.18
2023-03-21T06:09:15.442Z,3.67
2023-03-21T06:11:53.682Z,3.88
2023-03-21T06:14:29.663Z,4.13
2023-03-21T06:17:23.334Z,3.80
2023-03-21T06:20:05.044Z,3.65
2023-03-21T06:22:41.437Z,4.65
2023-03-21T06:25:13.169Z,3.92
2023-03-21T06:27:44.305Z,4.15
2023-03-21T06:30:16.233Z,4.30
2023-03-21T06:32:58.795Z,4.75
2023-03-21T06:35:32.370Z,4.38
2023-03-21T06:38:02.822Z,4.35
2023-03-21T06:40:36.135Z,4.38
2023-03-21T06:43:06.413Z,4.80
2023-03-21T06:45:37.351Z,3.90
2023-03-21T06:48:09.443Z,4.28
2023-03-21T06:50:55.374Z,4.40
2023-03-21T06:53:30.215Z,4.45
2023-03-21T06:56:19.992Z,5.10
2023-03-21T06:58:51.795Z,5.07
2023-03-21T07:01:41.074Z,4.85
2023-03-21T07:04:12.524Z,5.13
2023-03-21T07:06:45.527Z,5.07
2023-03-21T07:09:17.960Z,5.97
2023-03-21T07:11:50.483Z,5.38
2023-03-21T07:14:20.852Z,5.28
2023-03-21T07:16:51.594Z,5.00
2023-03-21T07:19:22.532Z,4.88
2023-03-21T07:21:55.660Z,4.97
2023-03-21T07:24:26.237Z,4.35
2023-03-21T07:26:56.751Z,4.63
2023-03-21T07:29:27.022Z,5.65
2023-03-21T07:31:57.323Z,4.57
2023-03-21T07:34:33.269Z,6.78
2023-03-21T07:37:10.002Z,5.13
2023-03-21T07:39:40.555Z,4.18
2023-03-21T07:42:12.300Z,3.88
2023-03-21T07:44:43.296Z,4.10
2023-03-21T07:47:13.669Z,5.13
2023-03-21T07:49:43.975Z,4.95
2023-03-21T07:52:17.011Z,4.97
2023-03-21T07:54:48.089Z,3.40
2023-03-21T07:57:18.602Z,3.65
2023-03-21T07:59:48.872Z,3.15
2023-03-21T08:02:20.595Z,2.80
2023-03-21T08:04:51.346Z,2.90
2023-03-21T08:07:28.054Z,3.00
2023-03-21T08:12:28.593Z,2.70
2023-03-21T08:15:01.069Z,2.72
2023-03-21T08:17:31.881Z,2.60
2023-03-21T08:20:02.177Z,2.33
2023-03-21T08:22:35.898Z,2.40
2023-03-21T08:25:08.207Z,2.63
2023-03-21T08:27:38.621Z,2.80
2023-03-21T08:30:10.455Z,2.40
2023-03-21T08:32:42.326Z,2.65
2023-03-21T08:35:16.118Z,2.08
2023-03-21T08:37:49.220Z,2.15
2023-03-21T08:40:21.348Z,2.10
2023-03-21T08:42:52.580Z,1.80
2023-03-21T08:45:23.776Z,1.63
2023-03-21T08:47:54.307Z,1.60
2023-03-21T08:50:28.058Z,1.38
2023-03-21T08:53:01.313Z,1.00
2023-03-21T08:55:33.316Z,1.50
2023-03-21T08:58:03.932Z,1.40
2023-03-21T09:00:34.420Z,1.30
2023-03-21T09:03:05.243Z,2.08
2023-03-21T09:05:36.859Z,1.15
2023-03-21T09:08:10.271Z,1.40
2023-03-21T09:10:40.621Z,1.48
2023-03-21T09:13:11.007Z,1.75
2023-03-21T09:15:41.473Z,1.33
2023-03-21T09:18:16.178Z,1.55
2023-03-21T09:20:48.307Z,1.20
2023-03-21T09:23:21.805Z,1.75
2023-03-21T09:25:52.276Z,1.38
2023-03-21T09:28:25.181Z,1.52
2023-03-21T09:30:55.559Z,1.20
2023-03-21T09:33:26.354Z,1.75
2023-03-21T09:35:57.805Z,1.10
2023-03-21T09:38:36.753Z,1.15
2023-03-21T09:41:17.280Z,1.92
2023-03-21T09:43:59.727Z,2.65
2023-03-21T09:46:37.754Z,1.38
2023-03-21T09:49:10.779Z,1.35
2023-03-21T09:51:46.251Z,1.38
2023-03-21T09:54:25.178Z,1.30
2023-03-21T09:56:58.977Z,2.20
2023-03-21T09:59:36.683Z,1.38
2023-03-21T10:02:17.668Z,1.55
2023-03-21T10:04:48.857Z,1.52
2023-03-21T10:07:20.093Z,1.70
2023-03-21T10:09:54.067Z,1.48
2023-03-21T10:12:30.677Z,1.98
2023-03-21T10:15:05.673Z,1.50
2023-03-21T10:17:41.350Z,2.20
2023-03-21T10:20:18.425Z,3.03
2023-03-21T10:22:50.949Z,0.90
2023-03-21T10:25:27.627Z,1.08
2023-03-21T10:27:58.093Z,0.88
2023-03-21T10:30:35.196Z,1.60
2023-03-21T10:33:10.453Z,1.42
2023-03-21T10:35:42.168Z,1.08
2023-03-21T10:38:18.900Z,1.42
2023-03-21T10:40:52.015Z,1.40
2023-03-21T10:43:37.919Z,1.08
2023-03-21T10:46:16.158Z,1.67
2023-03-21T10:48:48.400Z,1.40
2023-03-21T10:51:22.269Z,1.20
2023-03-21T10:53:56.905Z,1.20
2023-03-21T10:56:32.884Z,1.60
2023-03-21T10:59:04.426Z,1.60
2023-03-21T11:01:40.433Z,1.52
2023-03-21T11:04:15.823Z,1.60
2023-03-21T11:06:49.068Z,1.75
2023-03-21T11:09:23.287Z,1.08
2023-03-21T11:11:57.743Z,1.40
2023-03-21T11:14:40.693Z,1.35
2023-03-21T11:17:25.908Z,0.98
2023-03-21T11:19:59.725Z,1.17
2023-03-21T11:22:33.519Z,1.30
2023-03-21T11:25:06.365Z,0.85
2023-03-21T11:27:39.316Z,0.77
2023-03-21T11:30:24.873Z,0.95
2023-03-21T11:32:58.567Z,1.20
2023-03-21T11:35:35.906Z,1.15
2023-03-21T11:38:07.624Z,1.48
2023-03-21T11:40:39.974Z,1.30
2023-03-21T11:43:32.051Z,1.92
2023-03-21T11:46:08.160Z,1.20
2023-03-21T11:48:42.850Z,1.63
2023-03-21T11:51:25.984Z,1.60
2023-03-21T11:54:05.000Z,2.03
2023-03-21T11:56:39.708Z,1.58
2023-03-21T11:59:35.601Z,1.92
2023-03-21T12:02:20.699Z,1.50
2023-03-21T12:04:57.249Z,1.17
2023-03-21T12:07:55.692Z,1.05
2023-03-21T12:10:42.208Z,1.55
2023-03-21T12:13:31.307Z,1.30
2023-03-21T12:16:12.628Z,1.90
2023-03-21T12:19:13.059Z,0.95
2023-03-21T12:21:53.917Z,1.38
2023-03-21T12:24:28.072Z,1.50
2023-03-21T12:27:03.927Z,2.00
2023-03-21T12:29:54.215Z,1.30
2023-03-21T12:32:41.133Z,1.23
2023-03-21T12:35:23.605Z,1.15
2023-03-21T12:38:02.944Z,1.52
2023-03-21T12:40:45.901Z,1.23
2023-03-21T12:43:29.980Z,1.60
2023-03-21T12:46:04.094Z,2.10
2023-03-21T12:48:44.222Z,1.35
2023-03-21T12:51:17.901Z,1.20
2023-03-21T12:54:02.003Z,1.00
2023-03-21T12:56:37.023Z,1.17
2023-03-21T12:59:16.855Z,1.80
2023-03-21T13:01:50.304Z,1.95
2023-03-21T13:04:41.083Z,2.17
2023-03-21T13:07:14.534Z,1.83
2023-03-21T13:09:45.771Z,1.83
2023-03-21T13:12:38.146Z,1.52
2023-03-21T13:15:35.869Z,1.52
2023-03-21T13:18:17.132Z,2.15
2023-03-21T13:20:54.741Z,1.67
2023-03-21T13:23:26.047Z,1.30
2023-03-21T13:26:00.615Z,1.35
2023-03-21T13:28:33.239Z,1.05
2023-03-21T13:31:20.974Z,1.85
2023-03-21T13:33:53.487Z,0.85
2023-03-21T13:36:32.013Z,1.02
2023-03-21T13:39:07.162Z,1.48
2023-03-21T13:41:41.434Z,1.60
2023-03-21T13:44:31.178Z,1.63
2023-03-21T13:47:12.900Z,1.20
2023-03-21T13:50:11.053Z,1.23
2023-03-21T13:53:15.605Z,1.75
2023-03-21T13:55:55.465Z,1.60
2023-03-21T13:58:34.470Z,1.20
2023-03-21T14:01:16.377Z,2.00
2023-03-21T14:03:48.967Z,1.98
2023-03-21T14:06:21.567Z,1.67
2023-03-21T14:08:56.056Z,2.00
2023-03-21T14:11:26.712Z,1.30
2023-03-21T14:13:59.051Z,3.47
2023-03-21T14:16:31.343Z,1.40
2023-03-21T14:19:05.684Z,1.70
2023-03-21T14:21:38.196Z,1.33
2023-03-21T14:24:16.321Z,1.48
2023-03-21T14:26:49.458Z,1.80
2023-03-21T14:29:26.897Z,1.55
2023-03-21T14:32:00.309Z,1.20
2023-03-21T14:34:35.340Z,2.42
2023-03-21T14:37:10.039Z,1.60
2023-03-21T14:39:43.321Z,2.05
2023-03-21T14:42:21.119Z,1.75
2023-03-21T14:44:55.905Z,1.98
2023-03-21T14:47:28.797Z,1.42
2023-03-21T14:50:01.186Z,2.40
2023-03-21T14:52:35.080Z,1.70
2023-03-21T14:55:17.227Z,2.13
2023-03-21T14:57:48.018Z,1.75
2023-03-21T15:00:25.246Z,1.63
2023-03-21T15:02:56.791Z,1.88
2023-03-21T15:05:31.582Z,1.70
2023-03-21T15:08:04.061Z,1.65
2023-03-21T15:10:38.681Z,1.88
2023-03-21T15:13:25.337Z,1.70
2023-03-21T15:15:58.757Z,1.50
2023-03-21T15:18:32.197Z,1.98
2023-03-21T15:21:06.840Z,2.05
2023-03-21T15:23:39.988Z,1.42
2023-03-21T15:26:17.865Z,1.35
2023-03-21T15:28:50.034Z,1.40
2023-03-21T15:31:22.317Z,1.65
2023-03-21T15:33:55.054Z,1.15
2023-03-21T15:36:29.046Z,2.25
2023-03-21T15:38:59.493Z,1.83
2023-03-21T15:41:34.821Z,1.52
2023-03-21T15:44:14.492Z,2.13
2023-03-21T15:46:47.954Z,1.33
2023-03-21T15:49:25.285Z,1.60
2023-03-21T15:52:00.288Z,1.73
2023-03-21T15:54:33.036Z,1.70
2023-03-21T15:57:09.741Z,1.48
2023-03-21T15:59:44.236Z,1.60
2023-03-21T16:02:20.920Z,1.63
2023-03-21T16:05:05.454Z,1.45
2023-03-21T16:07:37.951Z,1.50
2023-03-21T16:10:20.058Z,2.00
2023-03-21T16:12:53.239Z,2.30
2023-03-21T16:15:23.961Z,1.77
2023-03-21T16:17:57.621Z,1.75
2023-03-21T16:20:32.761Z,2.28
2023-03-21T16:23:04.225Z,2.17
2023-03-21T16:25:35.924Z,1.38
2023-03-21T16:28:13.588Z,1.70
2023-03-21T16:30:43.948Z,2.13
2023-03-21T16:33:14.980Z,1.67
2023-03-21T16:35:45.314Z,1.35
2023-03-21T16:38:16.400Z,1.65
2023-03-21T16:40:47.158Z,1.45
2023-03-21T16:43:20.366Z,1.52
2023-03-21T16:45:50.910Z,1.38
2023-03-21T16:48:21.312Z,1.48
2023-03-21T16:50:51.929Z,1.80
2023-03-21T16:53:22.252Z,1.58
2023-03-21T16:55:54.145Z,1.25
2023-03-21T16:58:29.106Z,1.65
2023-03-21T17:01:01.267Z,1.92
2023-03-21T17:03:31.899Z,2.00
2023-03-21T17:06:06.147Z,1.60
2023-03-21T17:08:36.562Z,1.70
2023-03-21T17:11:08.321Z,1.75
2023-03-21T17:13:41.960Z,1.85
2023-03-21T17:16:14.476Z,2.38
2023-03-21T17:18:45.210Z,2.03
2023-03-21T17:24:10.568Z,1.98
2023-03-21T17:26:40.955Z,2.10
2023-03-21T17:29:15.131Z,1.83
2023-03-21T17:31:47.568Z,2.22
2023-03-21T17:34:18.041Z,2.38
2023-03-21T17:36:50.562Z,1.55
2023-03-21T17:39:24.381Z,2.67
2023-03-21T17:41:55.438Z,1.95
2023-03-21T17:44:28.559Z,2.60
2023-03-21T17:46:58.961Z,1.85
2023-03-21T17:49:29.276Z,2.20
2023-03-21T17:51:59.673Z,2.00
2023-03-21T17:54:30.039Z,2.63
2023-03-21T17:57:00.820Z,2.75
2023-03-21T17:59:33.818Z,3.72
2023-03-21T18:02:04.234Z,2.35
2023-03-21T18:04:34.653Z,3.08
2023-03-21T18:07:06.940Z,2.55
2023-03-21T18:09:41.640Z,3.08
2023-03-21T18:12:12.183Z,3.55
2023-03-21T18:14:45.784Z,4.40
2023-03-21T18:17:18.635Z,4.20
2023-03-21T18:19:50.444Z,3.35
2023-03-21T18:22:21.137Z,2.92
2023-03-21T18:24:51.520Z,2.72
2023-03-21T18:27:22.637Z,2.58
2023-03-21T18:32:46.578Z,1.92
2023-03-21T18:35:19.811Z,2.95
2023-03-21T18:37:50.615Z,2.30
2023-03-21T18:40:24.160Z,2.45
2023-03-21T18:43:41.676Z,2.10
2023-03-21T18:45:47.579Z,2.40
2023-03-21T18:48:18.395Z,2.22
2023-03-21T18:50:49.208Z,2.17
2023-03-21T18:53:22.386Z,2.30
2023-03-21T18:55:53.703Z,2.30
2023-03-21T18:58:24.299Z,2.05
2023-03-21T19:00:57.501Z,2.00
2023-03-21T19:03:36.681Z,2.55
2023-03-21T19:06:08.808Z,3.80
2023-03-21T19:08:41.784Z,4.68
2023-03-21T19:11:12.346Z,2.38
2023-03-21T19:13:43.052Z,2.67
2023-03-21T19:16:17.903Z,2.47
2023-03-21T19:18:54.774Z,2.90
2023-03-21T19:21:27.502Z,2.47
2023-03-21T19:24:28.900Z,3.13
2023-03-21T19:26:48.741Z,3.10
2023-03-21T19:29:19.210Z,2.42
2023-03-21T19:31:52.619Z,2.92
2023-03-21T19:34:23.615Z,2.55
2023-03-21T19:36:54.638Z,3.13
2023-03-21T19:39:26.207Z,2.85
2023-03-21T19:42:14.763Z,3.05
2023-03-21T19:44:46.272Z,2.35
2023-03-21T19:47:20.750Z,2.35
2023-03-21T19:52:44.639Z,2.55
2023-03-21T19:55:15.577Z,2.60
2023-03-21T19:57:48.638Z,3.45
2023-03-21T20:00:20.031Z,2.13
2023-03-21T20:02:53.322Z,3.75
2023-03-21T20:05:25.748Z,2.28
2023-03-21T20:07:57.316Z,2.20
2023-03-21T20:10:28.820Z,2.78
2023-03-21T20:12:59.697Z,2.78
2023-03-21T20:15:30.860Z,2.45
2023-03-21T20:18:06.562Z,2.95
2023-03-21T20:20:38.664Z,2.50
2023-03-21T20:23:11.369Z,2.58
2023-03-21T20:25:47.451Z,2.50
2023-03-21T20:28:25.889Z,3.00
2023-03-21T20:31:02.041Z,2.70
2023-03-21T20:33:36.139Z,2.20
2023-03-21T20:36:38.561Z,2.88
2023-03-21T20:38:59.473Z,2.53
2023-03-21T20:41:33.414Z,2.30
2023-03-21T20:44:41.606Z,2.38
2023-03-21T20:47:07.190Z,2.28
2023-03-21T20:49:40.385Z,2.35
2023-03-21T20:55:01.671Z,2.45
2023-03-21T20:57:34.163Z,3.20
2023-03-21T21:00:10.228Z,2.50
2023-03-21T21:02:40.926Z,2.63
2023-03-21T21:05:28.110Z,2.10
2023-03-21T21:07:59.319Z,2.40
2023-03-21T21:10:29.775Z,2.58
2023-03-21T21:13:00.095Z,2.20
2023-03-21T21:15:30.420Z,2.17
2023-03-21T21:18:06.203Z,2.67
2023-03-21T21:23:13.585Z,2.35
2023-03-21T21:25:44.131Z,2.47
2023-03-21T21:28:15.033Z,2.53
2023-03-21T21:30:45.511Z,3.08
2023-03-21T21:33:18.086Z,2.38
2023-03-21T21:35:51.279Z,3.00
2023-03-21T21:38:22.331Z,2.80
2023-03-21T21:40:54.279Z,2.97
2023-03-21T21:43:24.602Z,2.50
2023-03-21T21:45:55.047Z,2.28
2023-03-21T21:48:25.853Z,2.78
2023-03-21T21:50:59.247Z,3.35
2023-03-21T21:53:29.676Z,2.33
2023-03-21T21:56:02.071Z,2.35
2023-03-21T21:58:33.821Z,2.28
2023-03-21T22:01:04.913Z,2.30
2023-03-21T22:03:36.867Z,2.85
2023-03-21T22:06:11.553Z,2.50
2023-03-21T22:08:47.268Z,2.72
2023-03-21T22:11:18.765Z,2.80
2023-03-21T22:13:49.724Z,2.88
2023-03-21T22:16:20.201Z,2.70
2023-03-21T22:18:50.569Z,2.30
2023-03-21T22:21:23.733Z,2.45
2023-03-21T22:23:54.170Z,2.40
2023-03-21T22:26:25.432Z,2.20
2023-03-21T22:28:55.760Z,2.10
2023-03-21T22:31:26.574Z,2.78
2023-03-21T22:33:56.977Z,1.90
2023-03-21T22:36:29.995Z,2.50
2023-03-21T22:39:00.575Z,3.25
2023-03-21T22:41:30.950Z,2.70
2023-03-21T22:44:01.562Z,3.05
2023-03-21T22:46:37.431Z,1.75
2023-03-21T22:49:11.413Z,3.13
2023-03-21T22:51:45.676Z,2.50
2023-03-21T22:54:17.386Z,2.45
2023-03-21T22:56:49.550Z,2.83
2023-03-21T22:59:21.526Z,2.72
2023-03-21T23:01:53.967Z,2.67
2023-03-21T23:04:26.588Z,2.50
2023-03-21T23:07:01.819Z,2.25
2023-03-21T23:09:34.445Z,1.98
2023-03-21T23:12:06.903Z,3.22
2023-03-21T23:14:39.648Z,2.15
2023-03-21T23:17:12.742Z,2.53
2023-03-21T23:19:44.664Z,2.97
2023-03-21T23:22:18.625Z,2.20
2023-03-21T23:24:51.810Z,2.47
2023-03-21T23:27:24.651Z,2.35
2023-03-21T23:29:59.047Z,2.25
2023-03-21T23:32:31.473Z,2.38
2023-03-21T23:35:03.267Z,1.90
2023-03-21T23:37:37.790Z,2.40
2023-03-21T23:40:13.342Z,1.92
2023-03-21T23:42:45.366Z,3.08
2023-03-21T23:45:19.706Z,1.98
2023-03-21T23:47:53.780Z,2.63
2023-03-21T23:50:26.207Z,2.08
2023-03-21T23:53:01.209Z,3.05
2023-03-21T23:55:32.229Z,2.30
2023-03-21T23:58:04.576Z,2.83
